createdAt,value
2018-02-23T00:02:17.821Z,2.65
2018-02-23T00:04:46.909Z,2.61
2018-02-23T00:07:16.017Z,2.59
2018-02-23T00:09:45.122Z,2.60
2018-02-23T00:12:14.210Z,2.58
2018-02-23T00:14:43.317Z,2.58
2018-02-23T00:17:12.402Z,2.64
2018-02-23T00:19:41.535Z,2.66
2018-02-23T00:22:10.680Z,2.66
2018-02-23T00:24:39.746Z,2.69
2018-02-23T00:27:08.908Z,2.66
2018-02-23T00:29:37.950Z,2.60
2018-02-23T00:32:07.053Z,2.57
2018-02-23T00:34:36.142Z,2.58
2018-02-23T00:37:05.239Z,2.58
2018-02-23T00:39:34.357Z,2.53
2018-02-23T00:42:03.473Z,2.56
2018-02-23T00:44:32.558Z,2.55
2018-02-23T00:47:01.666Z,2.57
2018-02-23T00:49:30.752Z,2.55
2018-02-23T00:51:59.857Z,2.55
2018-02-23T00:54:28.954Z,2.57
2018-02-23T00:56:59.129Z,2.52
2018-02-23T00:59:28.229Z,2.49
2018-02-23T01:01:57.317Z,2.48
2018-02-23T01:04:26.426Z,2.51
2018-02-23T01:06:55.521Z,2.57
2018-02-23T01:09:24.626Z,2.54
2018-02-23T01:11:53.715Z,2.48
2018-02-23T01:14:22.786Z,2.49
2018-02-23T01:16:51.887Z,2.52
2018-02-23T01:19:20.990Z,2.51
2018-02-23T01:21:50.081Z,2.47
2018-02-23T01:24:19.196Z,2.49
2018-02-23T01:26:48.324Z,2.45
2018-02-23T01:29:17.414Z,2.46
2018-02-23T01:31:46.498Z,2.46
2018-02-23T01:34:15.643Z,2.47
2018-02-23T01:36:45.489Z,2.50
2018-02-23T01:39:14.609Z,2.52
2018-02-23T01:41:43.697Z,2.50
2018-02-23T01:44:12.811Z,2.48
2018-02-23T01:46:41.886Z,2.41
2018-02-23T01:49:10.998Z,2.44
2018-02-23T01:51:41.071Z,2.45
2018-02-23T01:54:10.219Z,2.39
2018-02-23T01:56:39.297Z,2.41
2018-02-23T01:59:08.521Z,2.42
2018-02-23T02:01:37.610Z,2.40
2018-02-23T02:04:06.716Z,2.35
2018-02-23T02:06:35.809Z,2.32
2018-02-23T02:09:04.939Z,2.32
2018-02-23T02:11:34.925Z,2.37
2018-02-23T02:14:04.039Z,2.33
2018-02-23T02:16:33.934Z,2.33
2018-02-23T02:19:03.078Z,2.33
2018-02-23T02:21:32.174Z,2.27
2018-02-23T02:24:02.274Z,2.24
2018-02-23T02:26:32.125Z,2.19
2018-02-23T02:29:01.208Z,2.16
2018-02-23T02:31:30.318Z,2.16
2018-02-23T02:33:59.408Z,2.12
2018-02-23T02:36:28.513Z,2.06
2018-02-23T02:38:57.591Z,2.09
2018-02-23T02:41:26.694Z,2.01
2018-02-23T02:43:55.781Z,2.04
2018-02-23T02:46:24.887Z,1.98
2018-02-23T02:48:53.986Z,1.95
2018-02-23T02:51:23.114Z,1.92
2018-02-23T02:53:52.233Z,1.82
2018-02-23T02:56:22.097Z,1.86
2018-02-23T02:58:51.206Z,1.78
2018-02-23T03:01:20.288Z,1.77
2018-02-23T03:03:49.373Z,1.67
2018-02-23T03:06:18.483Z,1.66
2018-02-23T03:08:47.586Z,1.66
2018-02-23T03:11:16.674Z,1.61
2018-02-23T03:13:45.761Z,1.63
2018-02-23T03:16:16.008Z,1.64
2018-02-23T03:18:45.114Z,1.58
2018-02-23T03:21:14.207Z,1.61
2018-02-23T03:23:43.307Z,1.56
2018-02-23T03:26:12.427Z,1.57
2018-02-23T03:28:42.284Z,1.56
2018-02-23T03:31:11.408Z,1.50
2018-02-23T03:33:40.502Z,1.45
2018-02-23T03:36:09.599Z,1.48
2018-02-23T03:38:38.726Z,1.50
2018-02-23T03:41:08.598Z,1.46
2018-02-23T03:43:38.480Z,1.46
2018-02-23T03:46:07.573Z,1.46
2018-02-23T03:48:36.678Z,1.47
2018-02-23T03:51:05.762Z,1.37
2018-02-23T03:53:34.883Z,1.42
2018-02-23T03:56:03.958Z,1.43
2018-02-23T03:58:36.078Z,1.42
2018-02-23T04:01:05.166Z,1.40
2018-02-23T04:03:34.274Z,1.34
2018-02-23T04:06:03.378Z,1.37
2018-02-23T04:08:33.236Z,1.37
2018-02-23T04:11:02.357Z,1.35
2018-02-23T04:13:31.470Z,1.29
2018-02-23T04:16:02.074Z,1.30
2018-02-23T04:18:31.206Z,1.28
2018-02-23T04:21:00.311Z,1.30
2018-02-23T04:23:30.178Z,1.35
2018-02-23T04:25:59.285Z,1.28
2018-02-23T04:28:28.401Z,1.29
2018-02-23T04:30:57.515Z,1.35
2018-02-23T04:33:27.390Z,1.30
2018-02-23T04:35:56.501Z,1.34
2018-02-23T04:38:25.610Z,1.33
2018-02-23T04:40:55.503Z,1.24
2018-02-23T04:43:24.615Z,1.24
2018-02-23T04:45:53.752Z,1.25
2018-02-23T04:48:22.845Z,1.12
2018-02-23T04:50:52.720Z,1.06
2018-02-23T04:53:21.805Z,1.05
2018-02-23T04:55:50.916Z,1.08
2018-02-23T04:58:20.019Z,1.05
2018-02-23T05:00:49.112Z,1.02
2018-02-23T05:03:18.238Z,1.09
2018-02-23T05:05:47.333Z,1.18
2018-02-23T05:08:16.491Z,1.22
2018-02-23T05:10:45.583Z,1.16
2018-02-23T05:13:14.694Z,1.16
2018-02-23T05:15:43.782Z,1.10
2018-02-23T05:18:12.905Z,1.08
2018-02-23T05:20:42.767Z,1.10
2018-02-23T05:23:11.888Z,1.03
2018-02-23T05:25:40.994Z,0.95
2018-02-23T05:28:10.109Z,1.01
2018-02-23T05:30:40.124Z,1.09
2018-02-23T05:33:10.998Z,1.10
2018-02-23T05:35:40.199Z,1.13
2018-02-23T05:38:09.364Z,1.08
2018-02-23T05:40:39.294Z,1.03
2018-02-23T05:43:08.413Z,1.04
2018-02-23T05:45:37.632Z,1.04
2018-02-23T05:48:06.764Z,0.99
2018-02-23T05:50:36.667Z,0.93
2018-02-23T05:53:05.801Z,0.91
2018-02-23T05:55:34.906Z,0.90
2018-02-23T05:58:04.825Z,0.88
2018-02-23T06:00:33.938Z,0.79
2018-02-23T06:03:03.051Z,0.95
2018-02-23T06:05:32.226Z,0.80
2018-02-23T06:08:01.339Z,0.94
2018-02-23T06:10:30.453Z,0.94
2018-02-23T06:13:00.330Z,0.92
2018-02-23T06:15:34.966Z,0.89
2018-02-23T06:18:07.991Z,0.82
2018-02-23T06:20:37.887Z,0.83
2018-02-23T06:23:06.981Z,0.85
2018-02-23T06:25:36.106Z,0.82
2018-02-23T06:28:05.978Z,0.86
2018-02-23T06:30:35.084Z,0.85
2018-02-23T06:33:04.195Z,0.75
2018-02-23T06:35:33.313Z,0.73
2018-02-23T06:38:03.189Z,0.79
2018-02-23T06:40:32.309Z,0.83
2018-02-23T06:43:02.204Z,0.73
2018-02-23T06:45:31.292Z,0.85
2018-02-23T06:48:00.417Z,0.85
2018-02-23T06:50:30.276Z,0.76
2018-02-23T06:52:59.403Z,0.80
2018-02-23T06:55:28.506Z,0.79
2018-02-23T06:57:57.626Z,0.84
2018-02-23T07:00:27.495Z,0.78
2018-02-23T07:02:56.622Z,0.82
2018-02-23T07:05:25.732Z,0.79
2018-02-23T07:07:54.840Z,0.83
2018-02-23T07:10:24.706Z,0.81
2018-02-23T07:12:53.846Z,0.89
2018-02-23T07:15:23.704Z,0.85
2018-02-23T07:17:52.826Z,0.83
2018-02-23T07:20:21.929Z,0.89
2018-02-23T07:22:51.064Z,0.94
2018-02-23T07:25:20.153Z,0.97
2018-02-23T07:27:49.275Z,0.94
2018-02-23T07:30:18.374Z,0.90
2018-02-23T07:32:47.472Z,0.87
2018-02-23T07:35:16.588Z,0.93
2018-02-23T07:37:45.711Z,0.88
2018-02-23T07:40:14.810Z,0.89
2018-02-23T07:42:44.690Z,0.95
2018-02-23T07:45:14.369Z,0.97
2018-02-23T07:47:43.492Z,1.07
2018-02-23T07:50:12.586Z,1.01
2018-02-23T07:52:41.692Z,0.96
2018-02-23T07:55:10.830Z,0.92
2018-02-23T07:57:40.713Z,1.08
2018-02-23T08:00:09.831Z,1.03
2018-02-23T08:02:39.710Z,0.99
2018-02-23T08:05:08.807Z,1.06
2018-02-23T08:07:37.898Z,1.09
2018-02-23T08:10:07.013Z,1.11
2018-02-23T08:12:36.118Z,1.12
2018-02-23T08:15:05.255Z,1.09
2018-02-23T08:17:34.369Z,1.11
2018-02-23T08:20:03.490Z,1.07
2018-02-23T08:22:32.586Z,1.10
2018-02-23T08:25:01.699Z,1.12
2018-02-23T08:27:30.802Z,1.20
2018-02-23T08:30:00.683Z,1.21
2018-02-23T08:35:02.050Z,1.29
2018-02-23T08:37:31.145Z,1.31
2018-02-23T08:40:00.298Z,1.48
2018-02-23T08:42:30.118Z,1.55
2018-02-23T08:44:59.235Z,1.66
2018-02-23T08:47:28.330Z,1.72
2018-02-23T08:49:57.416Z,1.85
2018-02-23T08:52:26.603Z,1.80
2018-02-23T08:54:56.459Z,1.76
2018-02-23T08:57:25.557Z,1.86
2018-02-23T08:59:56.148Z,1.91
2018-02-23T09:02:25.277Z,1.96
2018-02-23T09:04:54.364Z,2.11
2018-02-23T09:07:23.488Z,2.04
2018-02-23T09:09:52.594Z,1.89
2018-02-23T09:12:21.732Z,1.85
2018-02-23T09:14:50.853Z,1.79
2018-02-23T09:17:19.953Z,1.88
2018-02-23T09:19:49.052Z,1.93
2018-02-23T09:22:18.165Z,1.99
2018-02-23T09:24:47.247Z,2.04
2018-02-23T09:27:16.380Z,2.06
2018-02-23T09:29:46.267Z,2.16
2018-02-23T09:45:45.355Z,2.48
2018-02-23T09:48:14.451Z,2.61
2018-02-23T09:50:43.592Z,2.64
2018-02-23T09:53:13.458Z,2.65
2018-02-23T09:55:42.558Z,2.71
2018-02-23T09:58:11.679Z,2.76
2018-02-23T10:00:41.529Z,2.84
2018-02-23T10:03:10.692Z,2.96
2018-02-23T10:05:40.589Z,2.99
2018-02-23T10:08:09.711Z,2.87
2018-02-23T10:10:39.579Z,2.86
2018-02-23T10:13:08.674Z,2.72
2018-02-23T10:15:38.563Z,2.75
2018-02-23T10:18:07.673Z,2.82
2018-02-23T10:20:36.761Z,2.92
2018-02-23T10:23:05.903Z,2.92
2018-02-23T10:25:34.966Z,2.87
2018-02-23T10:28:04.055Z,2.97
2018-02-23T10:30:33.166Z,2.97
2018-02-23T10:33:02.268Z,2.99
2018-02-23T10:35:31.366Z,2.97
2018-02-23T10:38:00.466Z,3.05
2018-02-23T10:40:29.587Z,3.02
2018-02-23T10:42:59.460Z,3.07
2018-02-23T10:45:28.608Z,3.09
2018-02-23T10:47:57.706Z,3.13
2018-02-23T10:50:26.843Z,3.06
2018-02-23T10:52:55.926Z,3.04
2018-02-23T10:55:25.031Z,3.08
2018-02-23T10:57:54.191Z,3.18
2018-02-23T11:00:24.037Z,3.14
2018-02-23T11:02:53.163Z,3.16
2018-02-23T11:05:22.269Z,3.25
2018-02-23T11:07:51.381Z,3.39
2018-02-23T11:10:21.243Z,3.50
2018-02-23T11:12:50.349Z,3.36
2018-02-23T11:15:19.452Z,3.41
2018-02-23T11:17:48.556Z,3.59
2018-02-23T11:20:17.641Z,3.60
2018-02-23T11:22:46.750Z,3.57
2018-02-23T11:25:15.865Z,3.56
2018-02-23T11:27:44.959Z,3.50
2018-02-23T11:30:14.822Z,3.51
2018-02-23T11:32:43.960Z,3.47
2018-02-23T11:35:13.067Z,3.57
2018-02-23T11:37:42.151Z,3.66
2018-02-23T11:40:11.257Z,3.76
2018-02-23T11:42:41.122Z,3.76
2018-02-23T11:45:10.211Z,3.78
2018-02-23T11:47:39.326Z,3.75
2018-02-23T11:50:08.422Z,3.83
2018-02-23T11:52:37.523Z,3.61
2018-02-23T11:55:06.623Z,3.77
2018-02-23T11:57:41.170Z,4.00
2018-02-23T12:00:10.287Z,4.09
2018-02-23T12:02:40.145Z,4.11
2018-02-23T12:05:09.250Z,4.14
2018-02-23T12:07:38.370Z,4.10
2018-02-23T12:10:07.487Z,4.11
2018-02-23T12:12:37.366Z,4.06
2018-02-23T12:15:06.472Z,4.12
2018-02-23T12:17:35.585Z,4.12
2018-02-23T12:20:04.690Z,4.26
2018-02-23T12:22:33.802Z,4.32
2018-02-23T12:25:02.919Z,4.21
2018-02-23T12:27:32.019Z,4.48
2018-02-23T12:30:01.140Z,4.57
2018-02-23T12:32:30.259Z,4.69
2018-02-23T12:35:00.136Z,4.78
2018-02-23T12:37:29.244Z,4.81
2018-02-23T12:39:58.355Z,4.93
2018-02-23T12:42:27.467Z,4.87
2018-02-23T12:44:56.598Z,4.78
2018-02-23T12:47:25.698Z,4.60
2018-02-23T12:49:55.536Z,4.59
2018-02-23T12:52:24.635Z,4.81
2018-02-23T12:54:53.766Z,4.73
2018-02-23T12:57:23.653Z,4.78
2018-02-23T12:59:52.759Z,4.72
2018-02-23T13:02:21.884Z,4.91
2018-02-23T13:04:51.007Z,4.98
2018-02-23T13:07:20.092Z,5.12
2018-02-23T13:09:49.194Z,5.21
2018-02-23T13:12:18.316Z,5.30
2018-02-23T13:14:52.828Z,5.30
2018-02-23T13:17:21.951Z,5.30
2018-02-23T13:19:51.063Z,5.39
2018-02-23T13:22:20.952Z,5.27
2018-02-23T13:24:50.071Z,5.31
2018-02-23T13:27:20.949Z,5.38
2018-02-23T13:29:50.090Z,5.32
2018-02-23T13:32:19.955Z,5.35
2018-02-23T13:34:49.057Z,5.41
2018-02-23T13:37:18.158Z,5.45
2018-02-23T13:39:52.669Z,5.38
2018-02-23T13:42:23.595Z,5.39
2018-02-23T13:44:52.716Z,5.55
2018-02-23T13:47:21.843Z,5.46
2018-02-23T13:49:50.967Z,5.49
2018-02-23T13:52:20.063Z,5.49
2018-02-23T13:54:53.618Z,5.61
2018-02-23T13:57:22.723Z,5.50
2018-02-23T13:59:51.836Z,5.60
2018-02-23T14:02:20.943Z,5.61
2018-02-23T14:04:50.052Z,5.51
2018-02-23T14:07:39.724Z,5.50
2018-02-23T14:10:09.620Z,5.43
2018-02-23T14:12:38.728Z,5.38
2018-02-23T14:15:07.846Z,5.57
2018-02-23T14:17:37.734Z,5.76
2018-02-23T14:20:08.358Z,5.88
2018-02-23T14:22:37.484Z,6.00
2018-02-23T14:25:07.390Z,6.10
2018-02-23T14:27:37.264Z,6.12
2018-02-23T14:30:06.372Z,6.24
2018-02-23T14:32:35.489Z,6.45
2018-02-23T14:35:04.601Z,6.77
2018-02-23T14:37:34.481Z,6.95
2018-02-23T14:40:03.621Z,6.89
2018-02-23T14:42:32.732Z,7.20
2018-02-23T14:45:01.855Z,7.25
2018-02-23T14:47:30.950Z,8.72
2018-02-23T14:50:17.701Z,10.72
2018-02-23T14:52:47.570Z,12.85
2018-02-23T14:55:16.682Z,13.12
2018-02-23T14:57:45.806Z,13.69
2018-02-23T15:00:14.923Z,12.42
2018-02-23T15:02:44.808Z,12.73
2018-02-23T15:05:13.925Z,14.11
2018-02-23T15:07:43.036Z,13.84
2018-02-23T15:10:12.150Z,14.08
2018-02-23T15:12:41.301Z,11.73
2018-02-23T15:15:11.186Z,10.27
2018-02-23T15:17:41.129Z,8.74
2018-02-23T15:20:10.182Z,7.96
2018-02-23T15:22:39.292Z,7.43
2018-02-23T15:25:08.426Z,7.08
2018-02-23T15:27:37.540Z,6.71
2018-02-23T15:30:06.662Z,6.77
2018-02-23T15:32:40.977Z,6.52
2018-02-23T15:35:10.078Z,6.19
2018-02-23T15:37:39.214Z,5.96
2018-02-23T15:40:08.313Z,5.84
2018-02-23T15:42:37.405Z,5.73
2018-02-23T15:45:08.048Z,5.56
2018-02-23T15:47:37.161Z,5.46
2018-02-23T15:50:12.493Z,5.36
2018-02-23T15:52:42.364Z,5.27
2018-02-23T15:55:11.493Z,5.14
2018-02-23T15:57:44.635Z,5.13
2018-02-23T16:00:13.785Z,5.04
2018-02-23T16:02:42.920Z,5.07
2018-02-23T16:05:12.011Z,5.06
2018-02-23T16:07:41.118Z,4.99
2018-02-23T16:10:10.262Z,4.90
2018-02-23T16:12:39.380Z,4.79
2018-02-23T16:15:09.262Z,4.81
2018-02-23T16:17:38.367Z,4.80
2018-02-23T16:20:07.495Z,4.69
2018-02-23T16:22:36.610Z,4.66
2018-02-23T16:25:05.747Z,4.65
2018-02-23T16:27:34.838Z,4.67
2018-02-23T16:30:03.942Z,4.71
2018-02-23T16:32:33.070Z,4.70
2018-02-23T16:35:02.197Z,4.65
2018-02-23T16:37:31.328Z,4.58
2018-02-23T16:40:00.454Z,4.52
2018-02-23T16:42:30.327Z,4.43
2018-02-23T16:45:00.196Z,4.38
2018-02-23T16:47:29.351Z,4.36
2018-02-23T16:49:58.455Z,4.41
2018-02-23T16:52:27.567Z,4.29
2018-02-23T16:54:57.462Z,4.25
2018-02-23T16:57:26.581Z,4.20
2018-02-23T16:59:56.456Z,4.22
2018-02-23T17:02:25.553Z,4.22
2018-02-23T17:04:55.611Z,4.15
2018-02-23T17:07:25.503Z,4.10
2018-02-23T17:09:54.628Z,4.10
2018-02-23T17:12:24.538Z,4.09
2018-02-23T17:14:54.431Z,4.05
2018-02-23T17:17:23.532Z,4.03
2018-02-23T17:19:52.637Z,4.08
2018-02-23T17:22:22.502Z,4.05
2018-02-23T17:24:51.615Z,4.09
2018-02-23T17:27:20.736Z,4.09
2018-02-23T17:29:49.870Z,4.03
2018-02-23T17:32:19.791Z,4.05
2018-02-23T17:34:48.935Z,4.09
2018-02-23T17:37:18.861Z,4.07
2018-02-23T17:39:48.732Z,4.04
2018-02-23T17:42:17.860Z,4.02
2018-02-23T17:44:46.993Z,3.99
2018-02-23T17:47:16.867Z,4.06
2018-02-23T17:49:45.971Z,4.03
2018-02-23T17:52:15.124Z,4.02
2018-02-23T17:54:44.220Z,3.99
2018-02-23T17:57:13.349Z,4.03
2018-02-23T17:59:43.950Z,4.01
2018-02-23T18:02:13.075Z,3.93
2018-02-23T18:04:42.197Z,3.99
2018-02-23T18:07:11.309Z,3.99
2018-02-23T18:09:40.434Z,3.89
2018-02-23T18:12:09.558Z,3.86
2018-02-23T18:14:38.693Z,3.81
2018-02-23T18:17:08.575Z,3.78
2018-02-23T18:19:37.695Z,3.81
2018-02-23T18:22:07.581Z,3.70
2018-02-23T18:24:36.730Z,3.68
2018-02-23T18:27:05.831Z,3.77
2018-02-23T18:29:34.923Z,3.75
2018-02-23T18:32:04.053Z,3.59
2018-02-23T18:34:33.151Z,3.65
2018-02-23T18:37:02.288Z,3.65
2018-02-23T18:39:32.189Z,3.65
2018-02-23T18:42:01.363Z,3.51
2018-02-23T18:44:30.422Z,3.56
2018-02-23T18:46:59.535Z,3.54
2018-02-23T18:49:28.619Z,3.51
2018-02-23T18:51:57.728Z,3.52
2018-02-23T18:54:27.615Z,3.46
2018-02-23T18:56:56.912Z,3.40
2018-02-23T18:59:26.038Z,3.41
2018-02-23T19:01:55.819Z,3.44
2018-02-23T19:04:24.919Z,3.33
2018-02-23T19:06:54.034Z,3.29
2018-02-23T19:09:23.918Z,3.26
2018-02-23T19:11:53.062Z,3.32
2018-02-23T19:14:22.187Z,3.34
2018-02-23T19:16:51.294Z,3.32
2018-02-23T19:19:20.427Z,3.30
2018-02-23T19:21:49.542Z,3.25
2018-02-23T19:24:18.699Z,3.30
2018-02-23T19:26:48.575Z,3.28
2018-02-23T19:29:19.201Z,3.20
2018-02-23T19:31:48.325Z,3.12
2018-02-23T19:34:18.218Z,3.22
2018-02-23T19:36:47.344Z,3.19
2018-02-23T19:39:16.477Z,3.12
2018-02-23T19:41:45.639Z,3.11
2018-02-23T19:44:14.742Z,3.18
2018-02-23T19:46:44.632Z,3.16
2018-02-23T19:49:14.997Z,3.13
2018-02-23T19:51:44.855Z,3.17
2018-02-23T19:54:14.001Z,3.11
2018-02-23T19:56:43.896Z,3.20
2018-02-23T19:59:13.000Z,3.11
2018-02-23T20:01:42.871Z,3.05
2018-02-23T20:04:12.748Z,2.97
2018-02-23T20:06:41.934Z,3.06
2018-02-23T20:09:11.805Z,3.03
2018-02-23T20:11:40.936Z,3.06
2018-02-23T20:14:10.831Z,3.04
2018-02-23T20:16:39.931Z,3.14
2018-02-23T20:19:09.070Z,3.19
2018-02-23T20:21:38.190Z,3.10
2018-02-23T20:24:07.329Z,3.08
2018-02-23T20:26:36.463Z,3.03
2018-02-23T20:29:05.584Z,3.03
2018-02-23T20:31:34.705Z,3.04
2018-02-23T20:34:03.815Z,3.00
2018-02-23T20:49:20.937Z,2.94
2018-02-23T20:51:51.550Z,2.94
2018-02-23T20:54:21.446Z,2.93
2018-02-23T20:56:50.574Z,2.88
2018-02-23T20:59:20.467Z,2.94
2018-02-23T21:01:50.371Z,2.95
2018-02-23T21:04:19.493Z,3.01
2018-02-23T21:06:49.348Z,2.91
2018-02-23T21:09:18.796Z,2.94
2018-02-23T21:11:47.898Z,2.94
2018-02-23T21:14:17.792Z,2.97
2018-02-23T21:16:46.919Z,2.95
2018-02-23T21:19:17.610Z,2.96
2018-02-23T21:21:46.728Z,2.95
2018-02-23T21:24:15.869Z,2.93
2018-02-23T21:26:44.968Z,2.83
2018-02-23T21:29:14.092Z,2.90
2018-02-23T21:31:43.216Z,2.86
2018-02-23T21:34:12.359Z,2.86
2018-02-23T21:36:41.521Z,2.84
2018-02-23T21:39:10.676Z,2.85
2018-02-23T21:41:53.681Z,2.84
2018-02-23T21:44:22.804Z,2.83
2018-02-23T21:46:53.123Z,2.75
2018-02-23T21:49:22.222Z,2.73
2018-02-23T21:51:51.317Z,2.81
2018-02-23T21:54:20.414Z,2.78
2018-02-23T21:56:49.540Z,2.74
2018-02-23T21:59:19.452Z,2.67
2018-02-23T22:01:48.543Z,2.70
2018-02-23T22:04:17.658Z,2.72
2018-02-23T22:06:47.510Z,2.66
2018-02-23T22:09:16.634Z,2.65
2018-02-23T22:11:45.740Z,2.61
2018-02-23T22:14:14.866Z,2.54
2018-02-23T22:16:44.740Z,2.55
2018-02-23T22:19:13.875Z,2.59
2018-02-23T22:21:43.755Z,2.49
2018-02-23T22:24:12.858Z,2.50
2018-02-23T22:26:41.976Z,2.45
2018-02-23T22:29:11.103Z,2.48
2018-02-23T22:31:40.193Z,2.43
2018-02-23T22:34:09.327Z,2.41
2018-02-23T22:36:38.421Z,2.43
2018-02-23T22:39:07.527Z,2.31
2018-02-23T22:41:36.636Z,2.29
2018-02-23T22:44:06.518Z,2.24
2018-02-23T22:46:35.616Z,2.27
2018-02-23T22:49:04.719Z,2.21
2018-02-23T22:51:33.858Z,2.14
2018-02-23T22:54:03.738Z,2.08
2018-02-23T22:56:32.845Z,2.02
2018-02-23T22:59:01.967Z,1.99
2018-02-23T23:01:31.844Z,1.94
2018-02-23T23:04:00.968Z,1.92
2018-02-23T23:06:30.833Z,1.89
2018-02-23T23:08:59.947Z,1.89
2018-02-23T23:11:29.068Z,1.89
2018-02-23T23:13:58.177Z,1.84
2018-02-23T23:16:28.050Z,1.87
2018-02-23T23:18:57.166Z,1.87
2018-02-23T23:21:26.291Z,1.79
2018-02-23T23:23:56.134Z,1.81
2018-02-23T23:26:25.359Z,1.79
2018-02-23T23:28:55.964Z,1.77
2018-02-23T23:31:25.062Z,1.78
2018-02-23T23:33:54.158Z,1.72
2018-02-23T23:36:23.264Z,1.73
2018-02-23T23:38:52.471Z,1.69
2018-02-23T23:41:21.591Z,1.66
2018-02-23T23:43:50.682Z,1.65
2018-02-23T23:46:19.795Z,1.65
2018-02-23T23:48:49.663Z,1.58
2018-02-23T23:51:18.784Z,1.58
2018-02-23T23:53:47.871Z,1.61
2018-02-23T23:56:16.962Z,1.59
2018-02-23T23:58:46.079Z,1.58
